createdAt,value
2019-05-25T00:02:55.385Z,15.40
2019-05-25T00:07:59.160Z,15.40
2019-05-25T00:13:02.770Z,15.40
2019-05-25T00:18:07.137Z,15.30
2019-05-25T00:23:10.864Z,15.30
2019-05-25T00:28:14.471Z,15.10
2019-05-25T00:33:18.145Z,14.90
2019-05-25T00:38:21.785Z,14.80
2019-05-25T00:43:25.792Z,14.90
2019-05-25T00:48:29.794Z,14.80
2019-05-25T00:53:33.461Z,14.10
2019-05-25T00:58:37.472Z,14.00
2019-05-25T01:03:41.134Z,14.20
2019-05-25T01:08:45.226Z,14.30
2019-05-25T01:13:48.820Z,14.30
2019-05-25T01:18:52.713Z,14.40
2019-05-25T01:23:56.681Z,14.00
2019-05-25T01:29:00.353Z,13.90
2019-05-25T01:34:04.082Z,14.00
2019-05-25T01:39:08.015Z,14.00
2019-05-25T01:44:11.687Z,14.10
2019-05-25T01:49:15.638Z,14.10
2019-05-25T01:54:19.228Z,14.20
2019-05-25T01:59:23.064Z,14.30
2019-05-25T02:04:27.093Z,14.20
2019-05-25T02:09:30.761Z,14.10
2019-05-25T02:14:34.439Z,14.10
2019-05-25T02:19:38.052Z,14.10
2019-05-25T02:24:42.032Z,13.90
2019-05-25T02:29:46.032Z,13.90
2019-05-25T02:34:50.107Z,14.00
2019-05-25T02:39:53.709Z,14.00
2019-05-25T02:44:57.641Z,13.90
2019-05-25T02:50:01.351Z,13.90
2019-05-25T02:55:07.465Z,14.00
2019-05-25T03:00:13.048Z,13.80
2019-05-25T03:05:17.254Z,13.70
2019-05-25T03:10:20.998Z,13.90
2019-05-25T03:15:24.766Z,13.80
2019-05-25T03:20:28.721Z,13.80
2019-05-25T03:25:32.435Z,13.90
2019-05-25T03:30:37.840Z,13.90
2019-05-25T03:35:41.501Z,14.00
2019-05-25T03:40:45.108Z,14.00
2019-05-25T03:45:49.055Z,13.90
2019-05-25T03:50:52.755Z,13.90
2019-05-25T03:56:05.328Z,13.90
2019-05-25T04:01:01.589Z,13.80
2019-05-25T04:06:05.326Z,13.60
2019-05-25T04:11:08.993Z,13.70
2019-05-25T04:16:12.589Z,13.80
2019-05-25T04:21:16.257Z,13.80
2019-05-25T04:26:22.729Z,13.50
2019-05-25T04:31:25.162Z,13.50
2019-05-25T04:36:28.775Z,13.50
2019-05-25T04:41:32.474Z,13.70
2019-05-25T04:46:36.205Z,13.70
2019-05-25T04:51:39.867Z,13.90
2019-05-25T04:56:43.591Z,13.90
2019-05-25T05:01:47.621Z,14.00
2019-05-25T05:06:51.259Z,14.30
2019-05-25T05:11:55.270Z,14.30
2019-05-25T05:16:58.871Z,14.30
2019-05-25T05:22:05.576Z,14.60
2019-05-25T05:27:08.086Z,14.80
2019-05-25T05:32:26.350Z,15.10
2019-05-25T05:37:18.364Z,15.30
2019-05-25T05:42:24.241Z,15.60
2019-05-25T05:47:31.032Z,15.80
2019-05-25T05:52:38.896Z,16.20
2019-05-25T05:57:42.559Z,16.30
2019-05-25T06:02:46.150Z,16.30
2019-05-25T06:07:49.864Z,16.70
2019-05-25T06:12:53.488Z,17.10
2019-05-25T06:17:57.083Z,17.60
2019-05-25T06:23:00.686Z,17.80
2019-05-25T06:28:04.536Z,18.10
2019-05-25T06:33:08.144Z,18.40
2019-05-25T06:38:11.810Z,18.50
2019-05-25T06:43:15.476Z,18.70
2019-05-25T06:48:19.984Z,18.70
2019-05-25T06:53:23.786Z,18.80
2019-05-25T06:58:27.345Z,18.90
2019-05-25T07:03:31.080Z,19.10
2019-05-25T07:08:35.165Z,19.50
2019-05-25T07:13:39.056Z,19.70
2019-05-25T07:18:42.705Z,19.60
2019-05-25T07:23:46.404Z,19.60
2019-05-25T07:28:50.333Z,19.70
2019-05-25T07:33:54.069Z,19.90
2019-05-25T07:38:57.672Z,20.30
2019-05-25T07:44:01.310Z,20.60
2019-05-25T07:49:05.277Z,20.50
2019-05-25T07:54:10.062Z,20.70
2019-05-25T07:59:13.741Z,20.90
2019-05-25T08:04:17.338Z,21.10
2019-05-25T08:09:21.106Z,20.90
2019-05-25T08:14:24.752Z,21.20
2019-05-25T08:19:28.346Z,21.10
2019-05-25T08:24:32.048Z,21.40
2019-05-25T08:29:35.646Z,21.70
2019-05-25T08:34:39.246Z,21.40
2019-05-25T08:39:43.362Z,22.10
2019-05-25T08:44:47.181Z,22.40
2019-05-25T08:49:51.087Z,22.30
2019-05-25T08:54:56.713Z,22.70
2019-05-25T08:59:59.997Z,22.80
2019-05-25T09:05:05.749Z,23.20
2019-05-25T09:10:10.185Z,23.60
2019-05-25T09:15:14.200Z,23.60
2019-05-25T09:20:18.212Z,23.80
2019-05-25T09:25:21.817Z,23.90
2019-05-25T09:30:25.564Z,24.00
2019-05-25T09:35:29.634Z,23.60
2019-05-25T09:40:33.290Z,24.00
2019-05-25T09:45:36.988Z,24.30
2019-05-25T09:50:40.541Z,24.70
2019-05-25T09:55:44.188Z,24.90
2019-05-25T10:00:47.933Z,25.30
2019-05-25T10:05:51.681Z,25.30
2019-05-25T10:10:55.765Z,25.20
2019-05-25T10:15:59.818Z,25.70
2019-05-25T10:21:03.555Z,25.80
2019-05-25T10:26:07.219Z,24.80
2019-05-25T10:31:12.961Z,25.40
2019-05-25T10:36:17.194Z,25.60
2019-05-25T10:41:23.066Z,25.90
2019-05-25T10:46:35.349Z,26.30
2019-05-25T10:51:39.576Z,26.70
2019-05-25T10:56:43.458Z,26.70
2019-05-25T11:01:47.066Z,27.10
2019-05-25T11:06:50.759Z,27.10
2019-05-25T11:11:54.691Z,27.70
2019-05-25T11:16:58.295Z,27.00
2019-05-25T11:22:01.958Z,27.70
2019-05-25T11:27:05.637Z,27.50
2019-05-25T11:32:09.294Z,27.10
2019-05-25T11:37:15.570Z,26.00
2019-05-25T11:42:19.658Z,24.80
2019-05-25T11:47:23.350Z,24.00
2019-05-25T11:52:27.407Z,23.30
2019-05-25T11:57:31.014Z,23.00
2019-05-25T12:02:35.078Z,22.50
2019-05-25T12:07:38.884Z,22.20
2019-05-25T12:12:42.972Z,21.80
2019-05-25T12:17:46.911Z,21.40
2019-05-25T12:22:50.769Z,21.40
2019-05-25T12:27:54.425Z,21.00
2019-05-25T12:32:58.521Z,20.80
2019-05-25T12:38:02.208Z,21.00
2019-05-25T12:43:05.880Z,21.10
2019-05-25T12:48:09.997Z,21.20
2019-05-25T12:53:13.669Z,21.50
2019-05-25T12:58:17.636Z,21.50
2019-05-25T13:03:21.226Z,21.80
2019-05-25T13:08:24.827Z,22.50
2019-05-25T13:13:28.422Z,22.90
2019-05-25T13:18:33.258Z,23.80
2019-05-25T13:23:36.852Z,24.20
2019-05-25T13:28:40.452Z,24.40
2019-05-25T13:33:44.090Z,23.60
2019-05-25T13:38:47.798Z,23.00
2019-05-25T13:43:51.385Z,22.70
2019-05-25T13:48:54.991Z,22.50
2019-05-25T13:53:58.649Z,22.70
2019-05-25T13:59:02.359Z,23.60
2019-05-25T14:04:06.204Z,23.90
2019-05-25T14:09:09.825Z,23.80
2019-05-25T14:14:13.417Z,24.10
2019-05-25T14:19:17.087Z,24.50
2019-05-25T14:24:21.187Z,25.00
2019-05-25T14:29:26.266Z,25.40
2019-05-25T14:34:30.244Z,24.70
2019-05-25T14:39:33.903Z,24.70
2019-05-25T14:44:37.511Z,23.70
2019-05-25T14:49:41.207Z,23.40
2019-05-25T14:54:45.153Z,23.40
2019-05-25T14:59:48.821Z,23.10
2019-05-25T15:04:52.666Z,23.00
2019-05-25T15:09:56.405Z,22.70
2019-05-25T15:14:59.987Z,22.70
2019-05-25T15:20:09.625Z,22.90
2019-05-25T15:25:13.679Z,22.90
2019-05-25T15:30:19.086Z,22.80
2019-05-25T15:35:22.733Z,22.60
2019-05-25T15:40:26.476Z,23.00
2019-05-25T15:45:30.256Z,23.30
2019-05-25T15:50:34.070Z,22.90
2019-05-25T15:55:37.661Z,22.80
2019-05-25T16:00:46.865Z,22.60
2019-05-25T16:05:50.823Z,22.60
2019-05-25T16:10:54.957Z,22.60
2019-05-25T16:15:58.685Z,22.50
2019-05-25T16:21:02.281Z,22.40
2019-05-25T16:26:05.869Z,22.20
2019-05-25T16:31:09.471Z,22.00
2019-05-25T16:36:13.052Z,22.30
2019-05-25T16:41:16.881Z,22.10
2019-05-25T16:46:20.543Z,22.20
2019-05-25T16:51:24.302Z,22.10
2019-05-25T16:56:28.004Z,21.90
2019-05-25T17:01:47.060Z,21.80
2019-05-25T17:06:36.913Z,21.80
2019-05-25T17:11:40.874Z,21.60
2019-05-25T17:16:44.479Z,21.40
2019-05-25T17:21:48.394Z,21.30
2019-05-25T17:26:51.988Z,21.30
2019-05-25T17:31:55.588Z,21.10
2019-05-25T17:36:59.260Z,21.20
2019-05-25T17:42:02.940Z,21.00
2019-05-25T17:47:06.974Z,21.10
2019-05-25T17:52:11.097Z,21.00
2019-05-25T17:57:14.775Z,21.10
2019-05-25T18:02:18.938Z,21.10
2019-05-25T18:07:22.603Z,21.10
2019-05-25T18:12:26.340Z,21.00
2019-05-25T18:17:30.292Z,20.90
2019-05-25T18:22:33.885Z,20.80
2019-05-25T18:27:37.553Z,20.60
2019-05-25T18:32:41.186Z,20.50
2019-05-25T18:37:45.193Z,20.40
2019-05-25T18:48:17.178Z,20.20
2019-05-25T18:53:20.845Z,19.70
2019-05-25T18:58:26.485Z,19.20
2019-05-25T19:03:29.991Z,18.90
2019-05-25T19:08:33.586Z,18.80
2019-05-25T19:13:37.664Z,18.50
2019-05-25T19:18:41.266Z,18.30
2019-05-25T19:23:45.031Z,18.30
2019-05-25T19:28:48.733Z,18.10
2019-05-25T19:33:52.415Z,17.90
2019-05-25T19:38:56.499Z,18.00
2019-05-25T19:44:00.174Z,18.00
2019-05-25T19:49:04.387Z,18.10
2019-05-25T19:54:08.114Z,17.80
2019-05-25T19:59:13.194Z,17.70
2019-05-25T20:04:17.221Z,17.60
2019-05-25T20:09:21.173Z,17.50
2019-05-25T20:14:24.920Z,17.50
2019-05-25T20:19:28.745Z,17.30
2019-05-25T20:24:36.828Z,17.10
2019-05-25T20:29:40.506Z,16.90
2019-05-25T20:34:45.847Z,16.80
2019-05-25T20:39:49.663Z,16.70
2019-05-25T20:44:53.344Z,16.60
2019-05-25T20:49:57.121Z,16.50
2019-05-25T20:55:01.017Z,16.30
2019-05-25T21:00:06.047Z,16.20
2019-05-25T21:05:09.791Z,16.10
2019-05-25T21:10:13.827Z,16.00
2019-05-25T21:15:17.703Z,16.00
2019-05-25T21:20:21.988Z,16.00
2019-05-25T21:25:26.448Z,16.10
2019-05-25T21:30:30.261Z,16.20
2019-05-25T21:35:34.271Z,16.00
2019-05-25T21:40:41.814Z,15.70
2019-05-25T21:45:47.374Z,15.60
2019-05-25T21:50:51.103Z,15.50
2019-05-25T21:55:54.715Z,15.60
2019-05-25T22:00:58.619Z,15.50
2019-05-25T22:06:02.369Z,15.40
2019-05-25T22:11:06.164Z,15.40
2019-05-25T22:16:09.831Z,15.40
2019-05-25T22:21:13.514Z,15.40
2019-05-25T22:26:17.278Z,15.30
2019-05-25T22:31:20.978Z,15.10
2019-05-25T22:36:39.232Z,15.00
2019-05-25T22:41:30.527Z,15.00
2019-05-25T22:46:34.753Z,15.00
2019-05-25T22:51:38.268Z,15.20
2019-05-25T22:56:41.964Z,15.10
2019-05-25T23:01:45.716Z,15.00
2019-05-25T23:06:57.941Z,15.00
2019-05-25T23:12:14.389Z,15.10
2019-05-25T23:17:18.002Z,15.10
2019-05-25T23:22:21.595Z,15.20
2019-05-25T23:27:25.187Z,15.10
2019-05-25T23:32:28.798Z,15.10
2019-05-25T23:37:32.393Z,14.80
2019-05-25T23:42:35.981Z,14.90
2019-05-25T23:47:39.582Z,14.90
2019-05-25T23:52:43.181Z,14.90
2019-05-25T23:57:46.808Z,14.60
